Time;durP1;ratioP1;P1;durP2;ratioP2;P2;SDS_P1;SDS_P2;PMS_P1;PMS_P2;Temp;Humidity;BMP_temperature;BMP_pressure;BME280_temperature;BME280_humidity;BME280_pressure;Samples;Min_cycle;Max_cycle;Signal;HPM_P1;HPM_P2
2021/03/14 00:00:27;;;;;;;7.97;3.10;;;;;;;;;;5068643;28;20735;-73
2021/03/14 00:02:53;;;;;;;6.78;2.67;;;;;;;;;;5069970;28;20441;-72
2021/03/14 00:05:19;;;;;;;7.50;2.20;;;;;;;;;;5067085;28;20263;-72
2021/03/14 00:07:45;;;;;;;6.15;2.88;;;;;;;;;;5071039;28;20442;-71
2021/03/14 00:10:12;;;;;;;9.10;3.13;;;;;;;;;;5072423;28;20258;-71
2021/03/14 00:12:38;;;;;;;2.85;2.53;;;;;;;;;;5070212;28;20181;-72
2021/03/14 00:15:04;;;;;;;7.30;2.22;;;;;;;;;;5076575;28;20659;-72
2021/03/14 00:17:30;;;;;;;12.52;3.80;;;;;;;;;;5082040;28;20184;-72
2021/03/14 00:19:56;;;;;;;2.03;1.87;;;;;;;;;;5074394;28;20642;-72
2021/03/14 00:22:22;;;;;;;3.77;2.20;;;;;;;;;;5076421;28;20960;-72
2021/03/14 00:24:48;;;;;;;6.90;3.57;;;;;;;;;;5079414;28;20842;-72
2021/03/14 00:27:14;;;;;;;4.37;3.87;;;;;;;;;;5076153;28;20845;-73
2021/03/14 00:29:40;;;;;;;8.90;3.93;;;;;;;;;;5074849;28;20455;-71
2021/03/14 00:32:06;;;;;;;6.03;3.50;;;;;;;;;;5075431;28;20793;-71
2021/03/14 00:34:32;;;;;;;7.55;3.08;;;;;;;;;;5077020;28;20842;-72
2021/03/14 00:36:58;;;;;;;3.90;3.50;;;;;;;;;;5077521;28;20179;-73
2021/03/14 00:39:24;;;;;;;6.18;3.75;;;;;;;;;;5071720;28;21087;-72
2021/03/14 00:41:50;;;;;;;6.10;3.63;;;;;;;;;;5077521;28;20264;-73
2021/03/14 00:44:16;;;;;;;9.70;4.50;;;;;;;;;;5070693;28;20466;-72
2021/03/14 00:46:42;;;;;;;3.27;2.97;;;;;;;;;;5077123;28;20219;-73
2021/03/14 00:49:08;;;;;;;7.75;2.92;;;;;;;;;;5077982;28;20493;-72
2021/03/14 00:51:34;;;;;;;8.83;2.93;;;;;;;;;;5077479;28;20220;-72
2021/03/14 00:54:00;;;;;;;6.33;2.77;;;;;;;;;;5075699;28;20445;-72
2021/03/14 00:56:26;;;;;;;12.00;3.77;;;;;;;;;;5074599;28;20457;-72
2021/03/14 00:58:52;;;;;;;8.27;3.65;;;;;;;;;;5074234;28;20573;-71
2021/03/14 01:01:18;;;;;;;5.10;2.67;;;;;;;;;;5072392;28;20530;-72
2021/03/14 01:03:44;;;;;;;4.90;1.93;;;;;;;;;;5079052;28;20941;-72
2021/03/14 01:06:10;;;;;;;5.50;2.37;;;;;;;;;;5080649;28;20435;-73
2021/03/14 01:08:36;;;;;;;6.00;2.05;;;;;;;;;;5070007;28;20435;-72
2021/03/14 01:11:02;;;;;;;16.80;3.25;;;;;;;;;;5075405;28;20564;-71
2021/03/14 01:13:28;;;;;;;6.28;2.45;;;;;;;;;;5075381;28;20601;-72
2021/03/14 01:15:54;;;;;;;16.10;3.73;;;;;;;;;;5075456;28;20197;-73
2021/03/14 01:18:20;;;;;;;5.33;2.30;;;;;;;;;;5081897;28;20454;-72
2021/03/14 01:20:46;;;;;;;5.35;2.80;;;;;;;;;;5076607;28;20459;-72
2021/03/14 01:23:12;;;;;;;2.53;2.05;;;;;;;;;;5077066;28;20177;-72
2021/03/14 01:25:38;;;;;;;5.33;2.83;;;;;;;;;;5070272;28;20181;-72
2021/03/14 01:28:04;;;;;;;5.22;2.60;;;;;;;;;;5055829;28;20435;-72
2021/03/14 01:30:30;;;;;;;6.77;2.60;;;;;;;;;;5066185;28;20205;-72
2021/03/14 01:32:56;;;;;;;6.40;2.60;;;;;;;;;;5077238;28;20457;-73
2021/03/14 01:35:22;;;;;;;6.57;3.20;;;;;;;;;;5073968;28;20464;-73
2021/03/14 01:37:48;;;;;;;5.93;2.70;;;;;;;;;;5070598;28;20177;-72
2021/03/14 01:40:16;;;;;;;3.75;2.35;;;;;;;;;;5073383;28;20215;-72
2021/03/14 01:42:42;;;;;;;6.53;2.10;;;;;;;;;;5076026;28;20185;-74
2021/03/14 01:45:08;;;;;;;4.78;2.00;;;;;;;;;;5070833;28;20185;-73
2021/03/14 01:47:36;;;;;;;3.10;1.50;;;;;;;;;;5071130;28;20189;-73
2021/03/14 01:50:06;;;;;;;4.72;1.92;;;;;;;;;;5070355;28;20201;-72
2021/03/14 01:52:32;;;;;;;3.40;1.65;;;;;;;;;;5065777;28;20671;-72
2021/03/14 01:54:59;;;;;;;2.75;1.50;;;;;;;;;;5060885;28;20217;-73
2021/03/14 01:57:25;;;;;;;3.72;1.90;;;;;;;;;;5054147;28;20204;-73
2021/03/14 01:59:51;;;;;;;7.85;1.50;;;;;;;;;;5076703;28;20274;-73
2021/03/14 02:02:16;;;;;;;1.97;1.77;;;;;;;;;;5070501;28;20188;-73
2021/03/14 02:04:42;;;;;;;3.57;1.93;;;;;;;;;;5062782;28;20522;-72
2021/03/14 02:07:08;;;;;;;1.90;1.70;;;;;;;;;;5060503;28;20428;-73
2021/03/14 02:09:36;;;;;;;6.67;1.80;;;;;;;;;;5072767;28;20287;-73
2021/03/14 02:12:03;;;;;;;2.58;2.17;;;;;;;;;;5072380;28;20479;-72
2021/03/14 02:14:30;;;;;;;1.95;1.70;;;;;;;;;;5070525;28;20189;-73
2021/03/14 02:16:58;;;;;;;2.95;1.90;;;;;;;;;;5069831;28;20192;-73
2021/03/14 02:19:27;;;;;;;1.90;1.67;;;;;;;;;;5072941;28;20699;-72
2021/03/14 02:21:53;;;;;;;2.67;2.17;;;;;;;;;;5073217;28;20196;-73
2021/03/14 02:24:25;;;;;;;2.17;1.40;;;;;;;;;;5067447;28;20267;-72
2021/03/14 02:27:04;;;;;;;11.13;2.72;;;;;;;;;;5070887;28;20797;-72
2021/03/14 02:29:30;;;;;;;2.20;1.63;;;;;;;;;;5068549;28;20204;-72
2021/03/14 02:31:57;;;;;;;2.45;1.67;;;;;;;;;;5064365;28;20189;-72
2021/03/14 02:34:31;;;;;;;3.75;1.45;;;;;;;;;;5069365;28;20564;-72
2021/03/14 02:36:57;;;;;;;3.40;2.40;;;;;;;;;;5072005;28;20277;-72
2021/03/14 02:39:24;;;;;;;8.75;2.13;;;;;;;;;;5068993;28;20208;-71
2021/03/14 02:41:53;;;;;;;4.97;1.60;;;;;;;;;;5069090;28;20191;-71
2021/03/14 02:44:19;;;;;;;3.08;1.83;;;;;;;;;;5052292;28;20656;-71
2021/03/14 02:46:45;;;;;;;2.47;1.80;;;;;;;;;;5069892;28;20543;-73
2021/03/14 02:49:12;;;;;;;3.80;1.85;;;;;;;;;;5071822;28;20212;-72
2021/03/14 02:51:39;;;;;;;4.72;3.20;;;;;;;;;;5071175;28;20598;-71
2021/03/14 02:54:06;;;;;;;7.50;2.08;;;;;;;;;;5072603;28;20188;-71
2021/03/14 02:56:32;;;;;;;5.32;2.75;;;;;;;;;;5073155;28;20717;-71
2021/03/14 02:58:58;;;;;;;4.30;2.25;;;;;;;;;;5070888;28;20212;-71
2021/03/14 03:01:24;;;;;;;8.10;1.70;;;;;;;;;;5069534;28;20648;-72
2021/03/14 03:03:51;;;;;;;3.07;1.87;;;;;;;;;;5072156;28;20196;-72
2021/03/14 03:06:17;;;;;;;2.10;1.90;;;;;;;;;;5070498;28;20427;-72
2021/03/14 03:08:43;;;;;;;1.73;1.63;;;;;;;;;;5071613;28;20571;-71
2021/03/14 03:11:14;;;;;;;3.85;2.15;;;;;;;;;;5070310;28;20192;-71
2021/03/14 03:13:40;;;;;;;1.70;1.60;;;;;;;;;;5067680;28;20189;-72
2021/03/14 03:16:07;;;;;;;4.38;2.13;;;;;;;;;;5070936;28;20651;-72
2021/03/14 03:18:34;;;;;;;6.80;2.00;;;;;;;;;;5069472;28;21505;-71
2021/03/14 03:21:00;;;;;;;3.15;1.85;;;;;;;;;;5072170;28;20177;-71
2021/03/14 03:23:26;;;;;;;3.95;2.00;;;;;;;;;;5052464;28;20237;-72
2021/03/14 03:25:52;;;;;;;5.57;2.00;;;;;;;;;;5067331;28;20201;-73
2021/03/14 03:28:17;;;;;;;4.43;2.10;;;;;;;;;;5069558;28;20212;-72
2021/03/14 03:30:44;;;;;;;1.90;1.80;;;;;;;;;;5068804;28;20458;-72
2021/03/14 03:33:10;;;;;;;2.55;2.30;;;;;;;;;;5067911;28;20462;-72
2021/03/14 03:35:36;;;;;;;5.68;2.45;;;;;;;;;;5071773;28;20345;-71
2021/03/14 03:38:03;;;;;;;5.95;2.20;;;;;;;;;;5071014;28;20551;-73
2021/03/14 03:40:30;;;;;;;5.45;2.30;;;;;;;;;;5070758;28;20265;-71
2021/03/14 03:43:06;;;;;;;3.47;1.80;;;;;;;;;;5070170;28;20252;-73
2021/03/14 03:45:33;;;;;;;4.80;2.33;;;;;;;;;;5075856;28;20596;-72
2021/03/14 03:48:00;;;;;;;4.25;1.75;;;;;;;;;;5068581;28;20209;-72
2021/03/14 03:50:26;;;;;;;3.45;2.33;;;;;;;;;;5068469;28;20212;-72
2021/03/14 03:52:53;;;;;;;6.03;2.90;;;;;;;;;;5053170;28;20180;-72
2021/03/14 03:55:20;;;;;;;3.60;2.20;;;;;;;;;;5070244;28;20262;-72
2021/03/14 03:57:46;;;;;;;4.80;2.30;;;;;;;;;;5062870;28;20181;-72
2021/03/14 04:00:17;;;;;;;10.10;3.30;;;;;;;;;;5068858;28;20216;-72
2021/03/14 04:02:43;;;;;;;4.43;1.85;;;;;;;;;;5069280;28;20184;-71
2021/03/14 04:05:10;;;;;;;3.25;2.40;;;;;;;;;;5069867;28;20176;-72
2021/03/14 04:07:37;;;;;;;4.95;2.55;;;;;;;;;;5063243;28;20185;-72
2021/03/14 04:10:05;;;;;;;3.50;2.50;;;;;;;;;;5068587;28;20212;-72
2021/03/14 04:12:32;;;;;;;4.10;3.22;;;;;;;;;;5074434;28;20188;-72
2021/03/14 04:14:59;;;;;;;4.15;2.28;;;;;;;;;;5069827;28;20192;-72
2021/03/14 04:17:24;;;;;;;4.32;2.92;;;;;;;;;;5068807;28;20185;-72
2021/03/14 04:19:52;;;;;;;3.37;2.67;;;;;;;;;;5061745;28;20223;-72
2021/03/14 04:22:18;;;;;;;7.97;2.97;;;;;;;;;;5070467;28;20873;-72
2021/03/14 04:24:44;;;;;;;4.68;2.78;;;;;;;;;;5070827;28;20181;-72
2021/03/14 04:27:11;;;;;;;8.18;2.70;;;;;;;;;;5069116;28;20185;-73
2021/03/14 04:29:37;;;;;;;6.82;4.03;;;;;;;;;;5070050;28;20204;-72
2021/03/14 04:32:05;;;;;;;4.70;2.90;;;;;;;;;;5068464;28;20185;-71
2021/03/14 04:34:32;;;;;;;7.93;3.00;;;;;;;;;;5077924;28;20221;-71
2021/03/14 04:36:58;;;;;;;14.77;3.97;;;;;;;;;;5070841;28;20184;-72
2021/03/14 04:39:24;;;;;;;13.20;3.30;;;;;;;;;;5069788;28;20209;-72
2021/03/14 04:41:52;;;;;;;6.38;3.20;;;;;;;;;;5069269;28;20177;-73
2021/03/14 04:44:18;;;;;;;3.78;3.15;;;;;;;;;;5076092;28;20185;-72
2021/03/14 04:46:45;;;;;;;8.20;4.05;;;;;;;;;;5071257;28;20191;-73
2021/03/14 04:49:12;;;;;;;5.82;2.50;;;;;;;;;;5068420;28;20296;-73
2021/03/14 04:51:41;;;;;;;2.20;2.00;;;;;;;;;;5075363;28;20184;-72
2021/03/14 04:54:09;;;;;;;2.20;1.90;;;;;;;;;;5054129;28;20594;-72
2021/03/14 04:56:37;;;;;;;5.30;3.35;;;;;;;;;;5061382;28;20189;-72
2021/03/14 04:59:03;;;;;;;4.35;2.60;;;;;;;;;;5067510;28;20589;-72
2021/03/14 05:01:30;;;;;;;5.25;3.20;;;;;;;;;;5071858;28;20195;-72
2021/03/14 05:03:58;;;;;;;5.00;2.45;;;;;;;;;;5071927;28;20232;-72
2021/03/14 05:06:24;;;;;;;6.40;2.95;;;;;;;;;;5074772;28;20180;-71
2021/03/14 05:08:51;;;;;;;9.13;4.07;;;;;;;;;;5071744;28;20217;-72
2021/03/14 05:11:20;;;;;;;7.40;2.70;;;;;;;;;;5071396;28;20263;-72
2021/03/14 05:13:47;;;;;;;5.15;3.15;;;;;;;;;;5074104;28;20185;-71
2021/03/14 05:16:14;;;;;;;5.80;2.40;;;;;;;;;;5071630;28;20245;-72
2021/03/14 05:18:42;;;;;;;23.70;3.50;;;;;;;;;;5071697;28;20213;-72
2021/03/14 05:21:08;;;;;;;7.53;2.50;;;;;;;;;;5072206;28;20549;-72
2021/03/14 05:23:34;;;;;;;8.88;3.75;;;;;;;;;;5071067;28;20670;-72
2021/03/14 05:26:01;;;;;;;12.15;4.18;;;;;;;;;;5068221;28;20214;-71
2021/03/14 05:28:27;;;;;;;6.22;2.65;;;;;;;;;;5072042;28;20184;-71
2021/03/14 05:30:53;;;;;;;5.50;2.85;;;;;;;;;;5072774;28;20193;-71
2021/03/14 05:33:19;;;;;;;5.30;2.70;;;;;;;;;;5071864;28;20615;-71
2021/03/14 05:35:45;;;;;;;5.53;3.07;;;;;;;;;;5072817;28;20256;-72
2021/03/14 05:38:11;;;;;;;4.03;3.10;;;;;;;;;;5074008;28;20415;-72
2021/03/14 05:40:37;;;;;;;4.37;2.50;;;;;;;;;;5054723;28;20831;-72
2021/03/14 05:43:04;;;;;;;10.02;3.40;;;;;;;;;;5071501;28;20435;-71
2021/03/14 05:45:30;;;;;;;4.38;3.00;;;;;;;;;;5070848;28;20227;-71
2021/03/14 05:47:57;;;;;;;11.13;3.30;;;;;;;;;;5073170;28;20189;-68
2021/03/14 05:50:24;;;;;;;8.32;2.85;;;;;;;;;;5071111;28;20455;-68
2021/03/14 05:52:51;;;;;;;6.28;2.45;;;;;;;;;;5073928;28;20538;-68
2021/03/14 05:55:18;;;;;;;6.03;2.95;;;;;;;;;;5072583;28;20184;-68
2021/03/14 05:57:47;;;;;;;5.40;2.83;;;;;;;;;;5077532;28;20263;-69
2021/03/14 06:00:24;;;;;;;4.22;2.92;;;;;;;;;;5072959;28;20251;-69
2021/03/14 06:02:51;;;;;;;11.77;5.95;;;;;;;;;;5071647;28;20176;-69
2021/03/14 06:05:17;;;;;;;10.10;3.10;;;;;;;;;;5070608;28;20173;-69
2021/03/14 06:07:43;;;;;;;6.65;3.60;;;;;;;;;;5074485;28;20200;-69
2021/03/14 06:10:09;;;;;;;4.10;3.60;;;;;;;;;;5072062;28;20216;-68
2021/03/14 06:12:35;;;;;;;6.78;3.72;;;;;;;;;;5071734;28;20437;-68
2021/03/14 06:15:01;;;;;;;7.93;3.40;;;;;;;;;;5074598;28;20262;-69
2021/03/14 06:17:28;;;;;;;6.03;3.75;;;;;;;;;;5071061;28;20181;-69
2021/03/14 06:19:54;;;;;;;8.02;4.47;;;;;;;;;;5071757;28;20208;-69
2021/03/14 06:22:21;;;;;;;9.43;3.53;;;;;;;;;;5074047;28;20612;-68
2021/03/14 06:24:48;;;;;;;4.28;3.45;;;;;;;;;;5067194;28;20184;-69
2021/03/14 06:27:29;;;;;;;11.63;4.05;;;;;;;;;;5062105;28;20235;-68
2021/03/14 06:29:55;;;;;;;7.05;3.95;;;;;;;;;;5073383;28;20205;-69
2021/03/14 06:32:21;;;;;;;7.90;4.47;;;;;;;;;;5073119;28;20271;-68
2021/03/14 06:34:47;;;;;;;12.98;4.32;;;;;;;;;;5073363;28;21199;-68
2021/03/14 06:37:15;;;;;;;11.30;4.18;;;;;;;;;;5072930;28;20185;-69
2021/03/14 06:39:49;;;;;;;4.22;3.75;;;;;;;;;;5073493;28;20585;-68
2021/03/14 06:42:33;;;;;;;10.93;2.85;;;;;;;;;;5073248;28;20260;-68
2021/03/14 06:45:25;;;;;;;3.83;3.53;;;;;;;;;;5074617;28;20243;-68
2021/03/14 06:47:57;;;;;;;5.90;3.13;;;;;;;;;;5070345;28;20805;-68
2021/03/14 06:50:29;;;;;;;6.03;3.75;;;;;;;;;;5072806;28;20189;-69
2021/03/14 06:53:16;;;;;;;7.07;2.92;;;;;;;;;;5074466;28;20196;-69
2021/03/14 06:55:43;;;;;;;6.53;3.40;;;;;;;;;;5073002;28;20531;-68
2021/03/14 06:58:21;;;;;;;7.00;3.42;;;;;;;;;;5058556;28;20204;-69
2021/03/14 07:01:06;;;;;;;7.07;2.92;;;;;;;;;;5072496;28;20685;-68
2021/03/14 07:03:32;;;;;;;9.40;3.13;;;;;;;;;;5075147;28;20185;-68
2021/03/14 07:06:18;;;;;;;12.10;3.47;;;;;;;;;;5074431;28;20177;-69
2021/03/14 07:08:46;;;;;;;6.45;3.60;;;;;;;;;;5076416;28;20443;-69
2021/03/14 07:11:12;;;;;;;9.07;3.65;;;;;;;;;;5073015;28;20201;-69
2021/03/14 07:13:39;;;;;;;9.45;4.57;;;;;;;;;;5072151;28;20177;-69
2021/03/14 07:16:05;;;;;;;7.68;3.50;;;;;;;;;;5075311;28;20611;-69
2021/03/14 07:18:32;;;;;;;7.00;2.88;;;;;;;;;;5075197;28;20181;-68
2021/03/14 07:20:58;;;;;;;5.90;2.60;;;;;;;;;;5075654;28;20199;-68
2021/03/14 07:23:32;;;;;;;11.27;4.35;;;;;;;;;;5072101;28;20644;-69
2021/03/14 07:25:58;;;;;;;7.22;4.20;;;;;;;;;;5074457;28;20684;-68
2021/03/14 07:28:25;;;;;;;6.10;3.35;;;;;;;;;;5074930;28;20263;-68
2021/03/14 07:30:51;;;;;;;4.90;3.13;;;;;;;;;;5059849;28;20278;-69
2021/03/14 07:33:18;;;;;;;7.40;4.80;;;;;;;;;;5076945;28;20181;-69
2021/03/14 07:35:44;;;;;;;14.13;4.28;;;;;;;;;;5078682;28;20184;-69
2021/03/14 07:38:11;;;;;;;7.70;3.42;;;;;;;;;;5083038;28;20179;-69
2021/03/14 07:40:37;;;;;;;8.48;3.60;;;;;;;;;;5060226;28;20212;-69
2021/03/14 07:43:04;;;;;;;7.00;2.95;;;;;;;;;;5073813;28;20591;-69
2021/03/14 07:45:30;;;;;;;8.20;3.10;;;;;;;;;;5074733;28;20624;-68
2021/03/14 07:47:57;;;;;;;6.78;3.10;;;;;;;;;;5074207;28;20196;-69
2021/03/14 07:50:26;;;;;;;6.05;3.25;;;;;;;;;;5074465;28;20211;-69
2021/03/14 07:52:55;;;;;;;8.05;3.40;;;;;;;;;;5074736;28;20177;-69
2021/03/14 07:55:22;;;;;;;6.43;3.22;;;;;;;;;;5079767;28;20252;-69
2021/03/14 07:57:49;;;;;;;12.07;3.92;;;;;;;;;;5074854;28;20547;-69
2021/03/14 08:00:29;;;;;;;8.95;2.97;;;;;;;;;;5074571;28;20294;-69
2021/03/14 08:02:55;;;;;;;11.18;3.83;;;;;;;;;;5074159;28;20188;-69
2021/03/14 08:05:40;;;;;;;4.22;2.95;;;;;;;;;;5073232;28;20255;-69
2021/03/14 08:08:06;;;;;;;5.50;3.00;;;;;;;;;;5074873;28;20231;-69
2021/03/14 08:10:39;;;;;;;10.02;3.92;;;;;;;;;;5072540;28;20248;-69
2021/03/14 08:13:06;;;;;;;3.45;3.15;;;;;;;;;;5075157;28;20185;-69
2021/03/14 08:15:33;;;;;;;5.63;4.45;;;;;;;;;;5074249;28;20549;-69
2021/03/14 08:18:01;;;;;;;12.52;4.63;;;;;;;;;;5055352;28;20656;-69
2021/03/14 08:20:35;;;;;;;10.25;6.32;;;;;;;;;;5067589;28;20292;-69
2021/03/14 08:23:02;;;;;;;12.88;5.65;;;;;;;;;;5079104;28;20203;-69
2021/03/14 08:25:29;;;;;;;13.10;5.18;;;;;;;;;;5075021;28;20631;-68
2021/03/14 08:28:21;;;;;;;7.95;4.57;;;;;;;;;;5069999;28;20238;-69
2021/03/14 08:30:47;;;;;;;10.40;5.32;;;;;;;;;;5060348;28;20196;-69
2021/03/14 08:33:16;;;;;;;5.13;4.63;;;;;;;;;;5091630;28;20215;-69
2021/03/14 08:35:45;;;;;;;9.70;5.05;;;;;;;;;;5082094;28;20184;-69
2021/03/14 08:38:37;;;;;;;16.17;4.95;;;;;;;;;;5059619;28;20204;-69
2021/03/14 08:41:22;;;;;;;6.10;5.30;;;;;;;;;;5044096;28;20255;-69
2021/03/14 08:43:52;;;;;;;9.00;5.35;;;;;;;;;;5077738;28;20177;-69
2021/03/14 08:46:18;;;;;;;7.18;4.72;;;;;;;;;;5079773;28;20208;-68
2021/03/14 08:48:45;;;;;;;11.82;5.15;;;;;;;;;;5068881;28;20177;-69
2021/03/14 08:51:11;;;;;;;9.27;4.78;;;;;;;;;;5091399;28;20175;-69
2021/03/14 08:53:37;;;;;;;8.50;5.10;;;;;;;;;;5090053;28;20181;-69
2021/03/14 08:56:05;;;;;;;11.65;5.15;;;;;;;;;;5077289;28;20185;-69
2021/03/14 08:58:31;;;;;;;8.93;5.10;;;;;;;;;;5076673;28;20260;-68
2021/03/14 09:01:11;;;;;;;9.52;4.75;;;;;;;;;;5060191;28;20290;-69
2021/03/14 09:03:41;;;;;;;10.35;8.27;;;;;;;;;;5079217;28;20177;-68
2021/03/14 09:06:22;;;;;;;11.80;6.95;;;;;;;;;;5079583;28;20181;-69
2021/03/14 09:08:55;;;;;;;18.85;7.07;;;;;;;;;;5077569;28;20698;-70
2021/03/14 09:11:39;;;;;;;16.52;6.90;;;;;;;;;;5070804;28;20237;-69
2021/03/14 09:14:25;;;;;;;7.63;6.80;;;;;;;;;;5057311;28;20185;-70
2021/03/14 09:16:52;;;;;;;9.77;6.65;;;;;;;;;;5077432;28;20196;-70
2021/03/14 09:19:25;;;;;;;7.28;5.75;;;;;;;;;;5065370;28;20279;-70
2021/03/14 09:21:52;;;;;;;12.88;5.32;;;;;;;;;;5068572;28;20165;-70
2021/03/14 09:24:28;;;;;;;7.93;5.22;;;;;;;;;;5099615;28;20674;-70
2021/03/14 09:26:58;;;;;;;11.15;6.72;;;;;;;;;;5099286;28;20187;-69
2021/03/14 09:29:33;;;;;;;12.10;6.20;;;;;;;;;;5097404;28;20191;-69
2021/03/14 09:31:59;;;;;;;7.88;5.25;;;;;;;;;;5092067;28;20179;-69
2021/03/14 09:34:27;;;;;;;12.13;7.03;;;;;;;;;;5085564;28;20699;-69
2021/03/14 09:36:53;;;;;;;9.50;6.40;;;;;;;;;;5073302;28;20431;-69
2021/03/14 09:39:23;;;;;;;6.30;4.60;;;;;;;;;;5073939;28;20675;-69
2021/03/14 09:41:49;;;;;;;5.60;4.03;;;;;;;;;;5075330;28;20260;-69
2021/03/14 09:44:16;;;;;;;3.65;3.33;;;;;;;;;;5075547;28;20199;-69
2021/03/14 09:46:51;;;;;;;5.13;3.75;;;;;;;;;;5074923;28;20196;-68
2021/03/14 09:49:17;;;;;;;4.75;4.38;;;;;;;;;;5073834;28;20235;-69
2021/03/14 09:51:43;;;;;;;4.20;3.80;;;;;;;;;;5077286;28;20173;-69
2021/03/14 09:54:10;;;;;;;3.58;3.28;;;;;;;;;;5081061;28;20506;-70
2021/03/14 09:56:36;;;;;;;3.90;3.38;;;;;;;;;;5052378;28;20173;-69
2021/03/14 09:59:05;;;;;;;3.43;3.10;;;;;;;;;;5043588;28;20267;-69
2021/03/14 10:01:32;;;;;;;3.70;3.40;;;;;;;;;;5060842;28;20473;-68
2021/03/14 10:03:59;;;;;;;3.22;2.88;;;;;;;;;;5066679;28;20487;-69
2021/03/14 10:06:25;;;;;;;5.43;3.40;;;;;;;;;;5087053;28;20173;-69
2021/03/14 10:08:51;;;;;;;3.80;3.50;;;;;;;;;;5081052;28;20319;-69
2021/03/14 10:11:17;;;;;;;3.77;3.40;;;;;;;;;;5081033;28;20216;-69
2021/03/14 10:13:47;;;;;;;4.65;4.20;;;;;;;;;;5081188;28;20837;-69
2021/03/14 10:16:15;;;;;;;6.50;3.92;;;;;;;;;;5075420;28;20233;-69
2021/03/14 10:18:42;;;;;;;5.50;4.20;;;;;;;;;;5082895;28;20187;-69
2021/03/14 10:21:23;;;;;;;4.95;4.30;;;;;;;;;;5093030;28;20554;-69
2021/03/14 10:23:49;;;;;;;5.30;4.10;;;;;;;;;;5075523;28;20176;-69
2021/03/14 10:26:15;;;;;;;5.10;3.65;;;;;;;;;;5074637;28;20184;-69
2021/03/14 10:28:46;;;;;;;7.07;4.60;;;;;;;;;;5090379;28;20183;-69
2021/03/14 10:31:12;;;;;;;6.43;5.10;;;;;;;;;;5093397;28;20259;-68
2021/03/14 10:33:39;;;;;;;5.45;4.88;;;;;;;;;;5099209;28;20184;-68
2021/03/14 10:36:06;;;;;;;7.35;5.90;;;;;;;;;;5067631;28;20168;-70
2021/03/14 10:38:38;;;;;;;8.52;6.13;;;;;;;;;;5074544;28;20185;-69
2021/03/14 10:41:23;;;;;;;5.60;5.10;;;;;;;;;;5081851;28;20176;-69
2021/03/14 10:43:54;;;;;;;10.25;6.10;;;;;;;;;;5081633;28;20176;-69
2021/03/14 10:46:40;;;;;;;6.15;5.18;;;;;;;;;;5081877;28;20226;-69
2021/03/14 10:49:07;;;;;;;5.50;5.00;;;;;;;;;;5081733;28;20196;-69
2021/03/14 10:51:34;;;;;;;6.90;5.53;;;;;;;;;;5069613;28;20632;-69
2021/03/14 10:54:03;;;;;;;5.95;5.20;;;;;;;;;;5078097;28;20183;-69
2021/03/14 10:56:38;;;;;;;7.55;3.75;;;;;;;;;;5080387;28;20184;-69
2021/03/14 10:59:04;;;;;;;4.30;3.90;;;;;;;;;;5080834;28;20203;-69
2021/03/14 11:01:36;;;;;;;6.10;4.90;;;;;;;;;;5099117;28;20194;-69
2021/03/14 11:04:03;;;;;;;7.10;5.28;;;;;;;;;;5098451;28;20457;-69
2021/03/14 11:06:30;;;;;;;5.90;5.32;;;;;;;;;;5071283;28;20188;-69
2021/03/14 11:09:05;;;;;;;5.68;5.18;;;;;;;;;;5082263;28;20218;-70
2021/03/14 11:11:41;;;;;;;11.18;6.88;;;;;;;;;;5086130;28;20634;-70
2021/03/14 11:14:27;;;;;;;5.78;5.18;;;;;;;;;;5083419;22;20221;-74
2021/03/14 11:17:05;;;;;;;6.65;6.05;;;;;;;;;;5063200;28;20187;-74
2021/03/14 11:19:31;;;;;;;6.05;4.53;;;;;;;;;;5041438;28;20221;-75
2021/03/14 11:21:57;;;;;;;5.50;4.93;;;;;;;;;;5052070;28;20257;-75
2021/03/14 11:24:23;;;;;;;5.65;5.15;;;;;;;;;;5066747;28;20297;-75
2021/03/14 11:26:49;;;;;;;5.83;5.27;;;;;;;;;;5072207;28;20594;-74
2021/03/14 11:29:15;;;;;;;10.30;6.27;;;;;;;;;;5070383;28;20434;-75
2021/03/14 11:31:41;;;;;;;5.55;4.90;;;;;;;;;;5070390;28;20427;-75
2021/03/14 11:34:07;;;;;;;4.97;4.57;;;;;;;;;;5071172;28;20192;-75
2021/03/14 11:36:33;;;;;;;7.17;5.83;;;;;;;;;;5072289;28;20603;-75
2021/03/14 11:38:59;;;;;;;5.85;5.25;;;;;;;;;;5063038;28;20817;-75
2021/03/14 11:41:25;;;;;;;5.73;5.17;;;;;;;;;;5053132;28;20185;-76
2021/03/14 11:43:51;;;;;;;5.10;4.70;;;;;;;;;;5065963;28;20485;-75
2021/03/14 11:46:17;;;;;;;4.37;3.90;;;;;;;;;;5069315;28;20423;-75
2021/03/14 11:48:43;;;;;;;4.47;3.83;;;;;;;;;;5050263;28;20434;-75
2021/03/14 11:51:09;;;;;;;5.05;3.80;;;;;;;;;;5070862;28;20550;-75
2021/03/14 11:53:35;;;;;;;4.50;4.20;;;;;;;;;;5071044;28;20234;-75
2021/03/14 11:56:01;;;;;;;4.57;4.17;;;;;;;;;;5071688;28;20799;-75
2021/03/14 11:58:27;;;;;;;4.90;4.33;;;;;;;;;;5071480;28;20894;-75
2021/03/14 12:00:53;;;;;;;9.70;4.53;;;;;;;;;;5070975;28;20439;-75
2021/03/14 12:03:19;;;;;;;5.13;4.63;;;;;;;;;;5070536;28;20846;-75
2021/03/14 12:05:45;;;;;;;5.30;4.90;;;;;;;;;;5051537;28;20188;-75
2021/03/14 12:08:11;;;;;;;4.30;4.00;;;;;;;;;;5040790;28;20181;-75
2021/03/14 12:10:37;;;;;;;6.85;3.90;;;;;;;;;;5070100;28;20419;-75
2021/03/14 12:13:03;;;;;;;4.80;4.40;;;;;;;;;;5070177;28;21088;-75
2021/03/14 12:15:29;;;;;;;6.60;4.57;;;;;;;;;;5061130;28;20431;-75
2021/03/14 12:17:55;;;;;;;5.63;5.10;;;;;;;;;;5051471;28;20491;-75
2021/03/14 12:20:21;;;;;;;6.70;5.23;;;;;;;;;;5069354;28;20461;-75
2021/03/14 12:22:47;;;;;;;6.57;5.20;;;;;;;;;;5070959;28;20501;-75
2021/03/14 12:25:13;;;;;;;8.98;6.00;;;;;;;;;;5067925;28;20419;-75
2021/03/14 12:27:39;;;;;;;9.47;5.53;;;;;;;;;;5070401;28;20183;-76
2021/03/14 12:30:05;;;;;;;6.10;5.60;;;;;;;;;;5054656;28;20466;-75
2021/03/14 12:32:31;;;;;;;5.45;5.05;;;;;;;;;;5057495;28;20925;-73
2021/03/14 12:34:57;;;;;;;7.77;5.53;;;;;;;;;;5071073;28;20247;-75
2021/03/14 12:37:23;;;;;;;6.20;5.60;;;;;;;;;;5071278;28;20453;-75
2021/03/14 12:39:49;;;;;;;7.27;6.20;;;;;;;;;;5071095;28;20466;-75
2021/03/14 12:42:15;;;;;;;6.20;5.67;;;;;;;;;;5070479;28;20433;-75
2021/03/14 12:44:41;;;;;;;6.17;5.67;;;;;;;;;;5065199;28;20529;-75
2021/03/14 12:47:07;;;;;;;6.93;5.70;;;;;;;;;;5070036;28;20432;-75
2021/03/14 12:49:33;;;;;;;6.20;5.70;;;;;;;;;;5056386;28;20435;-75
2021/03/14 12:51:59;;;;;;;6.30;5.72;;;;;;;;;;5070752;28;20502;-75
2021/03/14 12:54:25;;;;;;;8.15;5.65;;;;;;;;;;5070824;28;20308;-75
2021/03/14 12:56:51;;;;;;;7.00;5.17;;;;;;;;;;5069667;28;20708;-75
2021/03/14 12:59:17;;;;;;;6.23;5.73;;;;;;;;;;5070530;28;20462;-75
2021/03/14 13:01:43;;;;;;;5.22;4.72;;;;;;;;;;5067280;28;20511;-76
2021/03/14 13:04:10;;;;;;;5.40;4.83;;;;;;;;;;5054598;28;20253;-76
2021/03/14 13:06:36;;;;;;;6.43;5.82;;;;;;;;;;5050963;28;20781;-76
2021/03/14 13:09:02;;;;;;;7.10;6.10;;;;;;;;;;5066394;28;20180;-76
2021/03/14 13:11:28;;;;;;;7.80;5.57;;;;;;;;;;5070447;28;20768;-75
2021/03/14 13:13:54;;;;;;;7.70;5.80;;;;;;;;;;5047233;28;20266;-75
2021/03/14 13:16:20;;;;;;;5.40;4.83;;;;;;;;;;5070055;28;20415;-75
2021/03/14 13:18:45;;;;;;;6.43;5.80;;;;;;;;;;5065185;28;20519;-76
2021/03/14 13:21:12;;;;;;;4.97;4.53;;;;;;;;;;5068572;28;20415;-75
2021/03/14 13:23:37;;;;;;;7.40;5.40;;;;;;;;;;5068194;28;20459;-76
2021/03/14 13:26:04;;;;;;;7.33;5.47;;;;;;;;;;5070354;28;20563;-76
2021/03/14 13:28:30;;;;;;;6.03;5.53;;;;;;;;;;5045232;28;20946;-76
2021/03/14 13:30:57;;;;;;;5.97;5.35;;;;;;;;;;5052188;28;20238;-76
2021/03/14 13:33:24;;;;;;;7.30;5.07;;;;;;;;;;5071244;28;20667;-76
2021/03/14 13:35:50;;;;;;;5.45;5.05;;;;;;;;;;5074292;28;20172;-76
2021/03/14 13:38:16;;;;;;;6.03;5.07;;;;;;;;;;5070446;28;20173;-73
2021/03/14 13:40:42;;;;;;;5.23;4.10;;;;;;;;;;5070508;28;20233;-76
2021/03/14 13:43:08;;;;;;;4.83;3.97;;;;;;;;;;5070572;28;20474;-76
2021/03/14 13:45:34;;;;;;;3.10;2.83;;;;;;;;;;5065486;28;20407;-76
2021/03/14 13:48:00;;;;;;;3.60;3.30;;;;;;;;;;5064805;28;20423;-74
2021/03/14 13:50:27;;;;;;;4.10;3.13;;;;;;;;;;5061641;28;20438;-74
2021/03/14 13:52:53;;;;;;;3.75;3.38;;;;;;;;;;5058242;28;20744;-74
2021/03/14 13:55:19;;;;;;;2.30;2.20;;;;;;;;;;5057679;28;20199;-76
2021/03/14 13:57:45;;;;;;;3.20;2.90;;;;;;;;;;5061758;28;20198;-76
2021/03/14 14:00:12;;;;;;;2.05;1.95;;;;;;;;;;5067049;28;20197;-74
2021/03/14 14:02:38;;;;;;;1.90;1.80;;;;;;;;;;5061286;28;20529;-74
2021/03/14 14:05:04;;;;;;;2.65;2.08;;;;;;;;;;5064953;28;20724;-74
2021/03/14 14:07:30;;;;;;;1.35;1.25;;;;;;;;;;5071342;28;20611;-73
2021/03/14 14:09:57;;;;;;;2.50;1.57;;;;;;;;;;5068834;28;20181;-74
2021/03/14 14:12:23;;;;;;;2.00;1.80;;;;;;;;;;5056347;28;20761;-74
2021/03/14 14:14:49;;;;;;;2.75;1.40;;;;;;;;;;5068169;28;20205;-74
2021/03/14 14:17:15;;;;;;;2.50;1.50;;;;;;;;;;5064607;28;20183;-74
2021/03/14 14:19:42;;;;;;;1.27;1.17;;;;;;;;;;5063723;28;20523;-74
2021/03/14 14:22:11;;;;;;;1.40;1.30;;;;;;;;;;5064210;28;20390;-74
2021/03/14 14:24:38;;;;;;;2.87;1.77;;;;;;;;;;5052589;28;20424;-74
2021/03/14 14:27:04;;;;;;;1.83;1.57;;;;;;;;;;5062099;28;20412;-74
2021/03/14 14:29:30;;;;;;;2.67;1.93;;;;;;;;;;5072333;28;20402;-76
2021/03/14 14:31:56;;;;;;;4.85;2.75;;;;;;;;;;5072522;28;20419;-76
2021/03/14 14:34:22;;;;;;;2.20;2.00;;;;;;;;;;5073118;28;20284;-76
2021/03/14 14:36:48;;;;;;;2.83;2.60;;;;;;;;;;5063344;28;20451;-76
2021/03/14 14:39:14;;;;;;;5.03;2.60;;;;;;;;;;5059544;28;20456;-76
2021/03/14 14:41:40;;;;;;;4.90;2.50;;;;;;;;;;5062841;28;20403;-76
2021/03/14 14:44:06;;;;;;;5.85;2.65;;;;;;;;;;5069044;28;20619;-76